sensor_id;sensor_type;location;lat;lon;timestamp;temperature;humidity
23122;DHT22;11730;51.248;22.534;2022-07-22T00:00:06;20.40;99.90
23122;DHT22;11730;51.248;22.534;2022-07-22T00:02:35;20.60;99.90
23122;DHT22;11730;51.248;22.534;2022-07-22T00:05:02;20.80;99.90
23122;DHT22;11730;51.248;22.534;2022-07-22T00:07:30;20.90;99.90
23122;DHT22;11730;51.248;22.534;2022-07-22T00:09:57;20.20;99.90
23122;DHT22;11730;51.248;22.534;2022-07-22T00:12:24;20.10;99.90
23122;DHT22;11730;51.248;22.534;2022-07-22T00:14:51;20.40;99.90
23122;DHT22;11730;51.248;22.534;2022-07-22T00:17:18;20.30;99.90
23122;DHT22;11730;51.248;22.534;2022-07-22T00:19:45;20.10;99.90
23122;DHT22;11730;51.248;22.534;2022-07-22T00:22:12;19.90;99.90
23122;DHT22;11730;51.248;22.534;2022-07-22T00:24:39;20.20;99.90
23122;DHT22;11730;51.248;22.534;2022-07-22T00:27:06;20.30;99.90
23122;DHT22;11730;51.248;22.534;2022-07-22T00:29:33;20.40;99.90
23122;DHT22;11730;51.248;22.534;2022-07-22T00:32:00;20.40;99.90
23122;DHT22;11730;51.248;22.534;2022-07-22T00:34:27;20.10;99.90
23122;DHT22;11730;51.248;22.534;2022-07-22T00:36:54;19.90;99.90
23122;DHT22;11730;51.248;22.534;2022-07-22T00:39:21;19.80;99.90
23122;DHT22;11730;51.248;22.534;2022-07-22T00:41:49;20.00;99.90
23122;DHT22;11730;51.248;22.534;2022-07-22T00:44:17;20.10;99.90
23122;DHT22;11730;51.248;22.534;2022-07-22T00:46:44;20.30;99.90
23122;DHT22;11730;51.248;22.534;2022-07-22T00:49:11;20.30;99.90
23122;DHT22;11730;51.248;22.534;2022-07-22T00:51:38;20.30;99.90
23122;DHT22;11730;51.248;22.534;2022-07-22T00:54:06;20.30;99.90
23122;DHT22;11730;51.248;22.534;2022-07-22T00:56:33;20.30;99.90
23122;DHT22;11730;51.248;22.534;2022-07-22T00:59:02;20.40;99.90
23122;DHT22;11730;51.248;22.534;2022-07-22T01:01:31;20.40;99.90
23122;DHT22;11730;51.248;22.534;2022-07-22T01:03:59;20.30;99.90
23122;DHT22;11730;51.248;22.534;2022-07-22T01:06:28;20.20;99.90
23122;DHT22;11730;51.248;22.534;2022-07-22T01:08:56;20.00;99.90
23122;DHT22;11730;51.248;22.534;2022-07-22T01:11:24;20.00;99.90
23122;DHT22;11730;51.248;22.534;2022-07-22T01:13:53;20.10;99.90
23122;DHT22;11730;51.248;22.534;2022-07-22T01:16:21;19.70;99.90
23122;DHT22;11730;51.248;22.534;2022-07-22T01:18:48;19.50;99.90
23122;DHT22;11730;51.248;22.534;2022-07-22T01:21:16;19.30;99.90
23122;DHT22;11730;51.248;22.534;2022-07-22T01:23:44;19.30;99.90
23122;DHT22;11730;51.248;22.534;2022-07-22T01:26:11;19.30;99.90
23122;DHT22;11730;51.248;22.534;2022-07-22T01:28:39;19.50;99.90
23122;DHT22;11730;51.248;22.534;2022-07-22T01:31:07;19.70;99.90
23122;DHT22;11730;51.248;22.534;2022-07-22T01:33:34;20.00;99.90
23122;DHT22;11730;51.248;22.534;2022-07-22T01:36:02;20.00;99.90
23122;DHT22;11730;51.248;22.534;2022-07-22T01:38:29;19.90;99.90
23122;DHT22;11730;51.248;22.534;2022-07-22T01:40:57;19.80;99.90
23122;DHT22;11730;51.248;22.534;2022-07-22T01:43:24;19.90;99.90
23122;DHT22;11730;51.248;22.534;2022-07-22T01:45:52;20.10;99.90
23122;DHT22;11730;51.248;22.534;2022-07-22T01:48:20;20.20;99.90
23122;DHT22;11730;51.248;22.534;2022-07-22T01:50:48;20.10;99.90
23122;DHT22;11730;51.248;22.534;2022-07-22T01:53:15;20.00;99.90
23122;DHT22;11730;51.248;22.534;2022-07-22T01:55:42;20.00;99.90
23122;DHT22;11730;51.248;22.534;2022-07-22T01:58:09;19.80;99.90
23122;DHT22;11730;51.248;22.534;2022-07-22T02:00:37;19.90;99.90
23122;DHT22;11730;51.248;22.534;2022-07-22T02:03:04;20.10;99.90
23122;DHT22;11730;51.248;22.534;2022-07-22T02:05:32;20.10;99.90
23122;DHT22;11730;51.248;22.534;2022-07-22T02:08:01;20.10;99.90
23122;DHT22;11730;51.248;22.534;2022-07-22T02:10:29;20.00;99.90
23122;DHT22;11730;51.248;22.534;2022-07-22T02:12:57;19.90;99.90
23122;DHT22;11730;51.248;22.534;2022-07-22T02:15:25;19.90;99.90
23122;DHT22;11730;51.248;22.534;2022-07-22T02:17:53;19.90;99.90
23122;DHT22;11730;51.248;22.534;2022-07-22T02:20:21;19.80;99.90
23122;DHT22;11730;51.248;22.534;2022-07-22T02:22:49;19.50;99.90
23122;DHT22;11730;51.248;22.534;2022-07-22T02:25:16;19.30;99.90
23122;DHT22;11730;51.248;22.534;2022-07-22T02:27:43;19.10;99.90
23122;DHT22;11730;51.248;22.534;2022-07-22T02:30:10;19.10;99.90
23122;DHT22;11730;51.248;22.534;2022-07-22T02:32:37;19.30;99.90
23122;DHT22;11730;51.248;22.534;2022-07-22T02:35:05;19.30;99.90
23122;DHT22;11730;51.248;22.534;2022-07-22T02:37:32;19.40;99.90
23122;DHT22;11730;51.248;22.534;2022-07-22T02:40:00;19.50;99.90
23122;DHT22;11730;51.248;22.534;2022-07-22T02:42:27;19.70;99.90
23122;DHT22;11730;51.248;22.534;2022-07-22T02:44:55;19.60;99.90
23122;DHT22;11730;51.248;22.534;2022-07-22T02:47:22;19.50;99.90
23122;DHT22;11730;51.248;22.534;2022-07-22T02:49:48;19.50;99.90
23122;DHT22;11730;51.248;22.534;2022-07-22T02:52:15;19.60;99.90
23122;DHT22;11730;51.248;22.534;2022-07-22T02:54:42;19.70;99.90
23122;DHT22;11730;51.248;22.534;2022-07-22T02:57:09;19.60;99.90
23122;DHT22;11730;51.248;22.534;2022-07-22T02:59:36;19.50;99.90
23122;DHT22;11730;51.248;22.534;2022-07-22T03:02:04;19.50;99.90
23122;DHT22;11730;51.248;22.534;2022-07-22T03:04:31;19.70;99.90
23122;DHT22;11730;51.248;22.534;2022-07-22T03:06:58;19.70;99.90
23122;DHT22;11730;51.248;22.534;2022-07-22T03:09:25;19.80;99.90
23122;DHT22;11730;51.248;22.534;2022-07-22T03:11:52;19.70;99.90
23122;DHT22;11730;51.248;22.534;2022-07-22T03:14:19;19.40;99.90
23122;DHT22;11730;51.248;22.534;2022-07-22T03:16:46;19.50;99.90
23122;DHT22;11730;51.248;22.534;2022-07-22T03:19:13;19.60;99.90
23122;DHT22;11730;51.248;22.534;2022-07-22T03:21:40;19.20;99.90
23122;DHT22;11730;51.248;22.534;2022-07-22T03:24:07;19.10;99.90
23122;DHT22;11730;51.248;22.534;2022-07-22T03:26:34;19.10;99.90
23122;DHT22;11730;51.248;22.534;2022-07-22T03:29:02;19.10;99.90
23122;DHT22;11730;51.248;22.534;2022-07-22T03:31:29;19.20;99.90
23122;DHT22;11730;51.248;22.534;2022-07-22T03:33:56;19.30;99.90
23122;DHT22;11730;51.248;22.534;2022-07-22T03:36:23;19.20;99.90
23122;DHT22;11730;51.248;22.534;2022-07-22T03:38:50;19.20;99.90
23122;DHT22;11730;51.248;22.534;2022-07-22T03:41:17;19.20;99.90
23122;DHT22;11730;51.248;22.534;2022-07-22T03:43:44;19.30;99.90
23122;DHT22;11730;51.248;22.534;2022-07-22T03:46:11;19.50;99.90
23122;DHT22;11730;51.248;22.534;2022-07-22T03:48:38;19.60;99.90
23122;DHT22;11730;51.248;22.534;2022-07-22T03:51:06;19.60;99.90
23122;DHT22;11730;51.248;22.534;2022-07-22T03:53:33;19.50;99.90
23122;DHT22;11730;51.248;22.534;2022-07-22T03:56:00;19.50;99.90
23122;DHT22;11730;51.248;22.534;2022-07-22T03:58:28;19.70;99.90
23122;DHT22;11730;51.248;22.534;2022-07-22T04:00:55;19.80;99.90
23122;DHT22;11730;51.248;22.534;2022-07-22T04:03:22;19.90;99.90
23122;DHT22;11730;51.248;22.534;2022-07-22T04:05:49;19.90;99.90
23122;DHT22;11730;51.248;22.534;2022-07-22T04:08:17;20.00;99.90
23122;DHT22;11730;51.248;22.534;2022-07-22T04:10:44;20.00;99.90
23122;DHT22;11730;51.248;22.534;2022-07-22T04:13:12;20.00;99.90
23122;DHT22;11730;51.248;22.534;2022-07-22T04:15:39;20.10;99.90
23122;DHT22;11730;51.248;22.534;2022-07-22T04:18:06;20.20;99.90
23122;DHT22;11730;51.248;22.534;2022-07-22T04:20:33;20.00;99.90
23122;DHT22;11730;51.248;22.534;2022-07-22T04:23:00;20.20;99.90
23122;DHT22;11730;51.248;22.534;2022-07-22T04:25:27;20.20;99.90
23122;DHT22;11730;51.248;22.534;2022-07-22T04:27:54;20.20;99.90
23122;DHT22;11730;51.248;22.534;2022-07-22T04:30:21;20.20;99.90
23122;DHT22;11730;51.248;22.534;2022-07-22T04:32:48;20.30;99.90
23122;DHT22;11730;51.248;22.534;2022-07-22T04:35:15;20.50;99.90
23122;DHT22;11730;51.248;22.534;2022-07-22T04:37:42;20.50;99.90
23122;DHT22;11730;51.248;22.534;2022-07-22T04:40:10;20.60;99.90
23122;DHT22;11730;51.248;22.534;2022-07-22T04:42:37;20.70;99.90
23122;DHT22;11730;51.248;22.534;2022-07-22T04:45:04;20.80;99.90
23122;DHT22;11730;51.248;22.534;2022-07-22T04:47:31;20.90;99.90
23122;DHT22;11730;51.248;22.534;2022-07-22T04:49:58;21.00;99.90
23122;DHT22;11730;51.248;22.534;2022-07-22T04:52:25;21.10;99.90
23122;DHT22;11730;51.248;22.534;2022-07-22T04:54:53;21.30;99.90
23122;DHT22;11730;51.248;22.534;2022-07-22T04:57:21;21.40;99.90
23122;DHT22;11730;51.248;22.534;2022-07-22T04:59:48;21.50;99.90
23122;DHT22;11730;51.248;22.534;2022-07-22T05:02:14;21.60;99.90
23122;DHT22;11730;51.248;22.534;2022-07-22T05:04:42;21.70;99.90
23122;DHT22;11730;51.248;22.534;2022-07-22T05:07:09;21.80;99.90
23122;DHT22;11730;51.248;22.534;2022-07-22T05:09:36;21.90;99.90
23122;DHT22;11730;51.248;22.534;2022-07-22T05:12:04;21.90;99.90
23122;DHT22;11730;51.248;22.534;2022-07-22T05:14:31;22.10;99.90
23122;DHT22;11730;51.248;22.534;2022-07-22T05:16:58;22.10;99.90
23122;DHT22;11730;51.248;22.534;2022-07-22T05:19:25;22.30;99.90
23122;DHT22;11730;51.248;22.534;2022-07-22T05:21:52;22.30;99.90
23122;DHT22;11730;51.248;22.534;2022-07-22T05:24:19;22.40;99.90
23122;DHT22;11730;51.248;22.534;2022-07-22T05:26:46;22.40;99.90
23122;DHT22;11730;51.248;22.534;2022-07-22T05:29:13;22.50;99.90
23122;DHT22;11730;51.248;22.534;2022-07-22T05:31:40;22.70;99.90
23122;DHT22;11730;51.248;22.534;2022-07-22T05:34:07;22.70;99.90
23122;DHT22;11730;51.248;22.534;2022-07-22T05:36:34;22.90;99.90
23122;DHT22;11730;51.248;22.534;2022-07-22T05:39:01;23.00;99.90
23122;DHT22;11730;51.248;22.534;2022-07-22T05:41:29;23.00;99.90
23122;DHT22;11730;51.248;22.534;2022-07-22T05:43:56;23.00;99.90
23122;DHT22;11730;51.248;22.534;2022-07-22T05:46:23;23.10;99.90
23122;DHT22;11730;51.248;22.534;2022-07-22T05:48:50;23.20;99.90
23122;DHT22;11730;51.248;22.534;2022-07-22T05:51:17;23.30;99.90
23122;DHT22;11730;51.248;22.534;2022-07-22T05:53:44;23.40;99.90
23122;DHT22;11730;51.248;22.534;2022-07-22T05:56:11;23.50;99.90
23122;DHT22;11730;51.248;22.534;2022-07-22T05:58:40;23.70;99.90
23122;DHT22;11730;51.248;22.534;2022-07-22T06:01:08;23.80;99.90
23122;DHT22;11730;51.248;22.534;2022-07-22T06:03:35;23.80;99.90
23122;DHT22;11730;51.248;22.534;2022-07-22T06:06:02;23.90;99.90
23122;DHT22;11730;51.248;22.534;2022-07-22T06:08:31;24.10;99.90
23122;DHT22;11730;51.248;22.534;2022-07-22T06:10:58;24.20;99.90
23122;DHT22;11730;51.248;22.534;2022-07-22T06:13:26;24.30;99.90
23122;DHT22;11730;51.248;22.534;2022-07-22T06:15:53;24.30;99.90
23122;DHT22;11730;51.248;22.534;2022-07-22T06:18:20;24.30;99.90
23122;DHT22;11730;51.248;22.534;2022-07-22T06:20:47;24.40;99.90
23122;DHT22;11730;51.248;22.534;2022-07-22T06:23:14;24.40;99.90
23122;DHT22;11730;51.248;22.534;2022-07-22T06:25:41;24.50;99.90
23122;DHT22;11730;51.248;22.534;2022-07-22T06:28:10;24.60;99.90
23122;DHT22;11730;51.248;22.534;2022-07-22T06:30:38;24.60;99.90
23122;DHT22;11730;51.248;22.534;2022-07-22T06:33:06;24.60;99.90
23122;DHT22;11730;51.248;22.534;2022-07-22T06:35:33;24.70;99.90
23122;DHT22;11730;51.248;22.534;2022-07-22T06:38:00;24.90;99.90
23122;DHT22;11730;51.248;22.534;2022-07-22T06:40:33;24.90;99.90
23122;DHT22;11730;51.248;22.534;2022-07-22T06:43:01;25.00;99.90
23122;DHT22;11730;51.248;22.534;2022-07-22T06:45:28;25.00;99.90
23122;DHT22;11730;51.248;22.534;2022-07-22T06:47:55;25.10;99.70
23122;DHT22;11730;51.248;22.534;2022-07-22T06:50:22;25.30;99.20
23122;DHT22;11730;51.248;22.534;2022-07-22T06:52:52;25.30;99.20
23122;DHT22;11730;51.248;22.534;2022-07-22T06:55:19;25.40;98.50
23122;DHT22;11730;51.248;22.534;2022-07-22T06:57:46;25.50;97.90
23122;DHT22;11730;51.248;22.534;2022-07-22T07:00:14;25.50;97.60
23122;DHT22;11730;51.248;22.534;2022-07-22T07:02:41;25.60;97.60
23122;DHT22;11730;51.248;22.534;2022-07-22T07:05:08;25.80;97.30
23122;DHT22;11730;51.248;22.534;2022-07-22T07:07:46;25.80;97.00
23122;DHT22;11730;51.248;22.534;2022-07-22T07:10:13;25.90;96.00
23122;DHT22;11730;51.248;22.534;2022-07-22T07:12:43;26.00;95.90
23122;DHT22;11730;51.248;22.534;2022-07-22T07:15:10;26.10;95.60
23122;DHT22;11730;51.248;22.534;2022-07-22T07:17:54;26.30;95.40
23122;DHT22;11730;51.248;22.534;2022-07-22T07:20:22;26.40;95.80
23122;DHT22;11730;51.248;22.534;2022-07-22T07:22:50;26.50;96.20
23122;DHT22;11730;51.248;22.534;2022-07-22T07:25:17;26.70;95.20
23122;DHT22;11730;51.248;22.534;2022-07-22T07:27:49;26.80;93.70
23122;DHT22;11730;51.248;22.534;2022-07-22T07:30:16;26.90;93.20
23122;DHT22;11730;51.248;22.534;2022-07-22T07:32:43;27.00;93.00
23122;DHT22;11730;51.248;22.534;2022-07-22T07:35:11;27.10;92.80
23122;DHT22;11730;51.248;22.534;2022-07-22T07:37:38;27.20;92.80
23122;DHT22;11730;51.248;22.534;2022-07-22T07:40:06;27.30;92.60
23122;DHT22;11730;51.248;22.534;2022-07-22T07:42:33;27.50;92.40
23122;DHT22;11730;51.248;22.534;2022-07-22T07:45:00;27.70;92.10
23122;DHT22;11730;51.248;22.534;2022-07-22T07:47:27;28.00;92.10
23122;DHT22;11730;51.248;22.534;2022-07-22T07:49:54;28.20;90.60
23122;DHT22;11730;51.248;22.534;2022-07-22T07:52:21;28.30;90.60
23122;DHT22;11730;51.248;22.534;2022-07-22T07:54:49;28.40;90.50
23122;DHT22;11730;51.248;22.534;2022-07-22T07:57:36;28.50;88.80
23122;DHT22;11730;51.248;22.534;2022-07-22T08:00:06;28.30;87.60
23122;DHT22;11730;51.248;22.534;2022-07-22T08:02:38;28.30;87.30
23122;DHT22;11730;51.248;22.534;2022-07-22T08:05:07;28.30;88.00
23122;DHT22;11730;51.248;22.534;2022-07-22T08:07:36;28.10;89.90
23122;DHT22;11730;51.248;22.534;2022-07-22T08:10:05;28.50;89.10
23122;DHT22;11730;51.248;22.534;2022-07-22T08:12:53;28.50;87.60
23122;DHT22;11730;51.248;22.534;2022-07-22T08:15:26;29.00;86.50
23122;DHT22;11730;51.248;22.534;2022-07-22T08:17:54;28.90;83.90
23122;DHT22;11730;51.248;22.534;2022-07-22T08:20:23;29.30;82.90
23122;DHT22;11730;51.248;22.534;2022-07-22T08:22:51;29.50;81.70
23122;DHT22;11730;51.248;22.534;2022-07-22T08:25:19;29.60;80.40
23122;DHT22;11730;51.248;22.534;2022-07-22T08:27:47;29.70;79.10
23122;DHT22;11730;51.248;22.534;2022-07-22T08:30:15;29.90;81.20
23122;DHT22;11730;51.248;22.534;2022-07-22T08:32:43;30.10;79.70
23122;DHT22;11730;51.248;22.534;2022-07-22T08:35:10;30.00;79.10
23122;DHT22;11730;51.248;22.534;2022-07-22T08:37:37;30.30;78.20
23122;DHT22;11730;51.248;22.534;2022-07-22T08:40:06;30.60;75.60
23122;DHT22;11730;51.248;22.534;2022-07-22T08:42:38;31.00;74.60
23122;DHT22;11730;51.248;22.534;2022-07-22T08:45:06;31.60;72.00
23122;DHT22;11730;51.248;22.534;2022-07-22T08:47:51;31.10;73.10
23122;DHT22;11730;51.248;22.534;2022-07-22T08:50:19;31.00;73.50
23122;DHT22;11730;51.248;22.534;2022-07-22T08:52:47;30.90;71.50
23122;DHT22;11730;51.248;22.534;2022-07-22T08:55:15;30.80;71.70
23122;DHT22;11730;51.248;22.534;2022-07-22T08:57:47;31.20;70.90
23122;DHT22;11730;51.248;22.534;2022-07-22T09:00:16;31.50;70.50
23122;DHT22;11730;51.248;22.534;2022-07-22T09:02:45;31.40;72.60
23122;DHT22;11730;51.248;22.534;2022-07-22T09:05:13;31.50;68.30
23122;DHT22;11730;51.248;22.534;2022-07-22T09:08:01;31.60;69.50
23122;DHT22;11730;51.248;22.534;2022-07-22T09:10:33;31.90;70.00
23122;DHT22;11730;51.248;22.534;2022-07-22T09:13:03;32.40;68.10
23122;DHT22;11730;51.248;22.534;2022-07-22T09:15:37;32.10;67.50
23122;DHT22;11730;51.248;22.534;2022-07-22T09:18:06;31.90;68.70
23122;DHT22;11730;51.248;22.534;2022-07-22T09:20:35;31.80;70.00
23122;DHT22;11730;51.248;22.534;2022-07-22T09:23:13;32.00;67.70
23122;DHT22;11730;51.248;22.534;2022-07-22T09:25:41;31.90;67.40
23122;DHT22;11730;51.248;22.534;2022-07-22T09:28:12;31.80;65.00
23122;DHT22;11730;51.248;22.534;2022-07-22T09:30:48;32.20;65.30
23122;DHT22;11730;51.248;22.534;2022-07-22T09:33:18;32.60;65.60
23122;DHT22;11730;51.248;22.534;2022-07-22T09:35:47;32.70;65.00
23122;DHT22;11730;51.248;22.534;2022-07-22T09:38:19;32.60;63.20
23122;DHT22;11730;51.248;22.534;2022-07-22T09:40:53;31.00;61.20
23122;DHT22;11730;51.248;22.534;2022-07-22T09:43:21;32.60;62.90
23122;DHT22;11730;51.248;22.534;2022-07-22T09:45:50;32.40;63.70
23122;DHT22;11730;51.248;22.534;2022-07-22T09:48:19;32.20;64.60
23122;DHT22;11730;51.248;22.534;2022-07-22T09:50:48;32.40;65.60
23122;DHT22;11730;51.248;22.534;2022-07-22T09:53:20;33.00;65.50
23122;DHT22;11730;51.248;22.534;2022-07-22T09:55:48;33.30;62.70
23122;DHT22;11730;51.248;22.534;2022-07-22T09:58:15;33.00;62.10
23122;DHT22;11730;51.248;22.534;2022-07-22T10:00:43;33.60;60.90
23122;DHT22;11730;51.248;22.534;2022-07-22T10:03:17;34.00;61.30
23122;DHT22;11730;51.248;22.534;2022-07-22T10:05:45;33.50;58.40
23122;DHT22;11730;51.248;22.534;2022-07-22T10:08:13;33.40;59.70
23122;DHT22;11730;51.248;22.534;2022-07-22T10:10:41;33.10;58.60
23122;DHT22;11730;51.248;22.534;2022-07-22T10:13:10;33.70;59.90
23122;DHT22;11730;51.248;22.534;2022-07-22T10:15:38;34.00;58.30
23122;DHT22;11730;51.248;22.534;2022-07-22T10:18:14;34.50;59.00
23122;DHT22;11730;51.248;22.534;2022-07-22T10:21:06;35.30;58.70
23122;DHT22;11730;51.248;22.534;2022-07-22T10:23:36;34.70;56.60
23122;DHT22;11730;51.248;22.534;2022-07-22T10:26:04;35.50;54.80
23122;DHT22;11730;51.248;22.534;2022-07-22T10:28:36;36.00;57.00
23122;DHT22;11730;51.248;22.534;2022-07-22T10:31:24;35.50;56.60
23122;DHT22;11730;51.248;22.534;2022-07-22T10:33:56;35.20;52.20
23122;DHT22;11730;51.248;22.534;2022-07-22T10:36:31;34.70;53.10
23122;DHT22;11730;51.248;22.534;2022-07-22T10:39:07;35.00;56.50
23122;DHT22;11730;51.248;22.534;2022-07-22T10:41:45;35.70;53.10
23122;DHT22;11730;51.248;22.534;2022-07-22T10:44:47;35.70;56.30
23122;DHT22;11730;51.248;22.534;2022-07-22T10:47:58;36.70;50.70
23122;DHT22;11730;51.248;22.534;2022-07-22T10:53:16;36.70;54.40
23122;DHT22;11730;51.248;22.534;2022-07-22T10:58:45;37.10;55.00
23122;DHT22;11730;51.248;22.534;2022-07-22T11:01:15;37.30;52.60
23122;DHT22;11730;51.248;22.534;2022-07-22T11:03:44;36.50;54.80
23122;DHT22;11730;51.248;22.534;2022-07-22T11:06:27;36.90;53.00
23122;DHT22;11730;51.248;22.534;2022-07-22T11:09:04;38.60;51.20
23122;DHT22;11730;51.248;22.534;2022-07-22T11:16:44;38.40;51.00
23122;DHT22;11730;51.248;22.534;2022-07-22T11:19:12;37.60;51.60
23122;DHT22;11730;51.248;22.534;2022-07-22T11:21:40;36.40;52.90
23122;DHT22;11730;51.248;22.534;2022-07-22T11:24:11;35.80;53.30
23122;DHT22;11730;51.248;22.534;2022-07-22T11:26:43;36.20;53.70
23122;DHT22;11730;51.248;22.534;2022-07-22T11:31:54;38.50;53.50
23122;DHT22;11730;51.248;22.534;2022-07-22T11:34:22;38.00;48.50
23122;DHT22;11730;51.248;22.534;2022-07-22T11:36:50;36.80;51.70
23122;DHT22;11730;51.248;22.534;2022-07-22T11:39:23;36.50;51.70
23122;DHT22;11730;51.248;22.534;2022-07-22T11:41:52;36.80;53.00
23122;DHT22;11730;51.248;22.534;2022-07-22T11:44:22;36.60;50.80
23122;DHT22;11730;51.248;22.534;2022-07-22T11:46:49;37.20;49.80
23122;DHT22;11730;51.248;22.534;2022-07-22T11:49:19;36.70;50.40
23122;DHT22;11730;51.248;22.534;2022-07-22T11:51:47;36.20;52.40
23122;DHT22;11730;51.248;22.534;2022-07-22T11:54:15;36.70;52.80
23122;DHT22;11730;51.248;22.534;2022-07-22T11:56:42;36.50;50.10
23122;DHT22;11730;51.248;22.534;2022-07-22T11:59:13;37.10;50.60
23122;DHT22;11730;51.248;22.534;2022-07-22T12:01:41;37.70;51.60
23122;DHT22;11730;51.248;22.534;2022-07-22T12:04:11;37.50;50.50
23122;DHT22;11730;51.248;22.534;2022-07-22T12:06:41;37.60;50.90
23122;DHT22;11730;51.248;22.534;2022-07-22T12:09:34;37.90;50.00
23122;DHT22;11730;51.248;22.534;2022-07-22T12:12:01;37.20;48.60
23122;DHT22;11730;51.248;22.534;2022-07-22T12:14:32;36.80;49.70
23122;DHT22;11730;51.248;22.534;2022-07-22T12:17:10;37.00;49.90
23122;DHT22;11730;51.248;22.534;2022-07-22T12:19:39;36.60;50.40
23122;DHT22;11730;51.248;22.534;2022-07-22T12:22:10;36.60;49.90
23122;DHT22;11730;51.248;22.534;2022-07-22T12:27:07;36.90;49.00
23122;DHT22;11730;51.248;22.534;2022-07-22T12:32:07;37.20;51.20
23122;DHT22;11730;51.248;22.534;2022-07-22T12:34:58;38.50;50.60
23122;DHT22;11730;51.248;22.534;2022-07-22T12:37:34;37.90;49.40
23122;DHT22;11730;51.248;22.534;2022-07-22T12:40:21;37.40;49.60
23122;DHT22;11730;51.248;22.534;2022-07-22T12:43:08;37.20;49.40
23122;DHT22;11730;51.248;22.534;2022-07-22T12:45:37;37.20;49.20
23122;DHT22;11730;51.248;22.534;2022-07-22T12:48:06;36.80;48.70
23122;DHT22;11730;51.248;22.534;2022-07-22T12:50:53;37.70;48.90
23122;DHT22;11730;51.248;22.534;2022-07-22T12:53:22;37.30;49.40
23122;DHT22;11730;51.248;22.534;2022-07-22T12:55:51;36.90;47.30
23122;DHT22;11730;51.248;22.534;2022-07-22T12:58:19;36.60;48.60
23122;DHT22;11730;51.248;22.534;2022-07-22T13:00:50;36.50;49.90
23122;DHT22;11730;51.248;22.534;2022-07-22T13:03:18;37.00;50.90
23122;DHT22;11730;51.248;22.534;2022-07-22T13:05:48;38.20;47.90
23122;DHT22;11730;51.248;22.534;2022-07-22T13:08:16;38.30;49.60
23122;DHT22;11730;51.248;22.534;2022-07-22T13:10:43;37.90;48.20
23122;DHT22;11730;51.248;22.534;2022-07-22T13:13:10;37.10;46.70
23122;DHT22;11730;51.248;22.534;2022-07-22T13:15:38;37.70;45.70
23122;DHT22;11730;51.248;22.534;2022-07-22T13:18:05;37.40;45.10
23122;DHT22;11730;51.248;22.534;2022-07-22T13:20:32;37.20;46.50
23122;DHT22;11730;51.248;22.534;2022-07-22T13:23:00;37.70;44.60
23122;DHT22;11730;51.248;22.534;2022-07-22T13:25:27;38.20;45.00
23122;DHT22;11730;51.248;22.534;2022-07-22T13:27:55;38.20;45.10
23122;DHT22;11730;51.248;22.534;2022-07-22T13:30:22;38.70;46.30
23122;DHT22;11730;51.248;22.534;2022-07-22T13:32:49;38.20;45.80
23122;DHT22;11730;51.248;22.534;2022-07-22T13:35:17;37.30;45.70
23122;DHT22;11730;51.248;22.534;2022-07-22T13:37:44;36.60;46.40
23122;DHT22;11730;51.248;22.534;2022-07-22T13:40:12;36.30;46.60
23122;DHT22;11730;51.248;22.534;2022-07-22T13:42:39;36.50;45.20
23122;DHT22;11730;51.248;22.534;2022-07-22T13:45:07;37.30;46.70
23122;DHT22;11730;51.248;22.534;2022-07-22T13:47:37;36.60;45.60
23122;DHT22;11730;51.248;22.534;2022-07-22T13:50:06;38.10;44.80
23122;DHT22;11730;51.248;22.534;2022-07-22T13:52:33;39.00;43.70
23122;DHT22;11730;51.248;22.534;2022-07-22T13:54:59;39.30;44.00
23122;DHT22;11730;51.248;22.534;2022-07-22T13:57:26;38.60;44.00
23122;DHT22;11730;51.248;22.534;2022-07-22T13:59:54;38.00;42.80
23122;DHT22;11730;51.248;22.534;2022-07-22T14:02:22;37.30;44.10
23122;DHT22;11730;51.248;22.534;2022-07-22T14:04:50;36.80;45.80
23122;DHT22;11730;51.248;22.534;2022-07-22T14:07:17;38.00;45.30
23122;DHT22;11730;51.248;22.534;2022-07-22T14:09:44;38.80;44.00
23122;DHT22;11730;51.248;22.534;2022-07-22T14:12:11;38.10;46.00
23122;DHT22;11730;51.248;22.534;2022-07-22T14:14:39;37.30;43.10
23122;DHT22;11730;51.248;22.534;2022-07-22T14:17:06;37.60;46.00
23122;DHT22;11730;51.248;22.534;2022-07-22T14:19:33;37.20;45.10
23122;DHT22;11730;51.248;22.534;2022-07-22T14:22:00;37.10;44.40
23122;DHT22;11730;51.248;22.534;2022-07-22T14:24:27;37.60;43.30
23122;DHT22;11730;51.248;22.534;2022-07-22T14:26:54;37.10;43.80
23122;DHT22;11730;51.248;22.534;2022-07-22T14:29:21;36.90;46.00
23122;DHT22;11730;51.248;22.534;2022-07-22T14:31:49;37.00;44.70
23122;DHT22;11730;51.248;22.534;2022-07-22T14:34:16;37.30;44.20
23122;DHT22;11730;51.248;22.534;2022-07-22T14:36:46;37.40;45.40
23122;DHT22;11730;51.248;22.534;2022-07-22T14:39:13;36.50;43.30
23122;DHT22;11730;51.248;22.534;2022-07-22T14:41:40;36.60;44.00
23122;DHT22;11730;51.248;22.534;2022-07-22T14:44:07;36.60;44.60
23122;DHT22;11730;51.248;22.534;2022-07-22T14:46:34;36.60;44.80
23122;DHT22;11730;51.248;22.534;2022-07-22T14:49:02;36.90;45.30
23122;DHT22;11730;51.248;22.534;2022-07-22T14:51:29;37.10;44.00
23122;DHT22;11730;51.248;22.534;2022-07-22T14:53:56;37.10;44.60
23122;DHT22;11730;51.248;22.534;2022-07-22T14:56:23;37.70;44.40
23122;DHT22;11730;51.248;22.534;2022-07-22T14:58:50;37.80;44.60
23122;DHT22;11730;51.248;22.534;2022-07-22T15:01:17;37.00;43.10
23122;DHT22;11730;51.248;22.534;2022-07-22T15:03:52;36.40;43.00
23122;DHT22;11730;51.248;22.534;2022-07-22T15:08:48;35.80;44.50
23122;DHT22;11730;51.248;22.534;2022-07-22T15:11:15;35.60;44.70
23122;DHT22;11730;51.248;22.534;2022-07-22T15:13:42;35.50;45.50
23122;DHT22;11730;51.248;22.534;2022-07-22T15:16:10;35.20;46.40
23122;DHT22;11730;51.248;22.534;2022-07-22T15:18:38;35.20;46.80
23122;DHT22;11730;51.248;22.534;2022-07-22T15:21:05;35.10;47.00
23122;DHT22;11730;51.248;22.534;2022-07-22T15:23:32;35.80;46.00
23122;DHT22;11730;51.248;22.534;2022-07-22T15:26:00;35.80;45.70
23122;DHT22;11730;51.248;22.534;2022-07-22T15:28:28;35.80;46.00
23122;DHT22;11730;51.248;22.534;2022-07-22T15:31:00;35.00;46.00
23122;DHT22;11730;51.248;22.534;2022-07-22T15:33:27;34.90;47.20
23122;DHT22;11730;51.248;22.534;2022-07-22T15:36:04;34.80;48.40
23122;DHT22;11730;51.248;22.534;2022-07-22T15:38:33;34.40;48.00
23122;DHT22;11730;51.248;22.534;2022-07-22T15:41:00;34.30;47.30
23122;DHT22;11730;51.248;22.534;2022-07-22T15:43:27;34.40;48.10
23122;DHT22;11730;51.248;22.534;2022-07-22T15:45:54;34.20;48.60